sensor_id;sensor_type;location;lat;lon;timestamp;P1;P2;P0
66336;PMS1003;53139;45.576;5.304;2023-03-13T00:00:11;14.25;13.75;12.00
66336;PMS1003;53139;45.576;5.304;2023-03-13T00:03:12;13.50;11.50;8.75
66336;PMS1003;53139;45.576;5.304;2023-03-13T00:06:13;15.00;12.25;9.00
66336;PMS1003;53139;45.576;5.304;2023-03-13T00:09:15;15.50;14.50;10.75
66336;PMS1003;53139;45.576;5.304;2023-03-13T00:12:16;13.75;12.50;9.25
66336;PMS1003;53139;45.576;5.304;2023-03-13T00:15:16;15.00;15.00;11.50
66336;PMS1003;53139;45.576;5.304;2023-03-13T00:18:17;13.25;13.00;9.00
66336;PMS1003;53139;45.576;5.304;2023-03-13T00:21:18;13.33;13.33;9.33
66336;PMS1003;53139;45.576;5.304;2023-03-13T00:24:21;17.00;14.00;9.50
66336;PMS1003;53139;45.576;5.304;2023-03-13T00:27:21;10.00;10.00;8.25
66336;PMS1003;53139;45.576;5.304;2023-03-13T00:30:21;12.00;9.50;7.00
66336;PMS1003;53139;45.576;5.304;2023-03-13T00:33:22;9.00;9.00;7.75
66336;PMS1003;53139;45.576;5.304;2023-03-13T00:36:23;9.25;7.00;4.50
66336;PMS1003;53139;45.576;5.304;2023-03-13T00:39:25;9.50;7.00;6.75
66336;PMS1003;53139;45.576;5.304;2023-03-13T00:42:25;8.50;6.00;4.00
66336;PMS1003;53139;45.576;5.304;2023-03-13T00:45:26;12.75;7.75;6.00
66336;PMS1003;53139;45.576;5.304;2023-03-13T00:48:26;8.50;7.00;5.25
66336;PMS1003;53139;45.576;5.304;2023-03-13T00:51:27;8.75;7.00;5.00
66336;PMS1003;53139;45.576;5.304;2023-03-13T00:54:28;4.50;4.50;3.50
66336;PMS1003;53139;45.576;5.304;2023-03-13T00:57:28;7.00;7.00;5.75
66336;PMS1003;53139;45.576;5.304;2023-03-13T01:00:29;7.75;7.00;6.00
66336;PMS1003;53139;45.576;5.304;2023-03-13T01:03:29;10.00;8.50;6.00
66336;PMS1003;53139;45.576;5.304;2023-03-13T01:06:30;9.25;7.00;5.25
66336;PMS1003;53139;45.576;5.304;2023-03-13T01:09:33;9.00;7.00;5.75
66336;PMS1003;53139;45.576;5.304;2023-03-13T01:12:33;7.75;7.00;5.00
66336;PMS1003;53139;45.576;5.304;2023-03-13T01:15:34;2.75;2.75;0.75
66336;PMS1003;53139;45.576;5.304;2023-03-13T01:18:35;9.25;7.00;4.00
66336;PMS1003;53139;45.576;5.304;2023-03-13T01:21:37;7.75;6.50;5.00
66336;PMS1003;53139;45.576;5.304;2023-03-13T01:24:38;8.00;7.25;5.25
66336;PMS1003;53139;45.576;5.304;2023-03-13T01:27:38;4.00;4.00;2.33
66336;PMS1003;53139;45.576;5.304;2023-03-13T01:30:38;8.00;7.50;5.25
66336;PMS1003;53139;45.576;5.304;2023-03-13T01:33:39;5.25;4.75;3.50
66336;PMS1003;53139;45.576;5.304;2023-03-13T01:36:39;5.50;4.00;3.00
66336;PMS1003;53139;45.576;5.304;2023-03-13T01:39:40;4.00;4.00;3.75
66336;PMS1003;53139;45.576;5.304;2023-03-13T01:42:54;9.00;6.75;4.00
66336;PMS1003;53139;45.576;5.304;2023-03-13T01:52:16;10.00;9.00;5.00
66336;PMS1003;53139;45.576;5.304;2023-03-13T01:55:26;6.50;6.00;4.00
66336;PMS1003;53139;45.576;5.304;2023-03-13T01:58:27;15.75;10.50;7.25
66336;PMS1003;53139;45.576;5.304;2023-03-13T02:01:29;14.00;9.75;8.25
66336;PMS1003;53139;45.576;5.304;2023-03-13T02:04:30;23.00;21.25;14.50
66336;PMS1003;53139;45.576;5.304;2023-03-13T02:07:58;26.50;21.25;13.25
66336;PMS1003;53139;45.576;5.304;2023-03-13T02:11:06;15.00;9.50;8.50
66336;PMS1003;53139;45.576;5.304;2023-03-13T02:14:15;10.50;9.50;7.00
66336;PMS1003;53139;45.576;5.304;2023-03-13T02:17:17;26.75;23.00;15.25
66336;PMS1003;53139;45.576;5.304;2023-03-13T02:20:18;29.75;24.50;15.50
66336;PMS1003;53139;45.576;5.304;2023-03-13T02:23:26;32.00;22.25;15.25
66336;PMS1003;53139;45.576;5.304;2023-03-13T02:26:33;16.75;16.00;11.25
66336;PMS1003;53139;45.576;5.304;2023-03-13T02:29:33;17.75;14.50;11.25
66336;PMS1003;53139;45.576;5.304;2023-03-13T02:32:34;14.00;12.25;9.00
66336;PMS1003;53139;45.576;5.304;2023-03-13T02:35:35;16.50;13.25;10.25
66336;PMS1003;53139;45.576;5.304;2023-03-13T02:38:41;13.75;10.25;8.00
66336;PMS1003;53139;45.576;5.304;2023-03-13T02:41:48;14.75;12.00;9.25
66336;PMS1003;53139;45.576;5.304;2023-03-13T02:44:50;11.50;9.25;7.50
66336;PMS1003;53139;45.576;5.304;2023-03-13T02:47:51;13.50;11.00;9.00
66336;PMS1003;53139;45.576;5.304;2023-03-13T02:50:51;12.25;10.50;8.00
66336;PMS1003;53139;45.576;5.304;2023-03-13T02:53:52;10.00;9.00;7.75
66336;PMS1003;53139;45.576;5.304;2023-03-13T02:56:57;8.50;8.50;5.50
66336;PMS1003;53139;45.576;5.304;2023-03-13T03:00:01;7.00;6.50;3.25
66336;PMS1003;53139;45.576;5.304;2023-03-13T03:03:04;7.00;3.50;2.50
66336;PMS1003;53139;45.576;5.304;2023-03-13T03:06:05;11.25;9.00;6.75
66336;PMS1003;53139;45.576;5.304;2023-03-13T03:09:05;8.50;8.25;5.25
66336;PMS1003;53139;45.576;5.304;2023-03-13T03:12:06;8.50;7.50;5.00
66336;PMS1003;53139;45.576;5.304;2023-03-13T03:15:07;7.25;6.50;4.50
66336;PMS1003;53139;45.576;5.304;2023-03-13T03:18:08;6.75;6.75;5.00
66336;PMS1003;53139;45.576;5.304;2023-03-13T03:21:08;6.75;6.75;4.75
66336;PMS1003;53139;45.576;5.304;2023-03-13T03:24:09;7.00;7.00;4.25
66336;PMS1003;53139;45.576;5.304;2023-03-13T03:27:09;4.50;4.50;3.00
66336;PMS1003;53139;45.576;5.304;2023-03-13T03:30:10;4.00;3.50;3.00
66336;PMS1003;53139;45.576;5.304;2023-03-13T03:33:11;7.00;4.75;4.00
66336;PMS1003;53139;45.576;5.304;2023-03-13T03:36:13;7.33;4.67;3.33
66336;PMS1003;53139;45.576;5.304;2023-03-13T03:39:15;5.50;5.00;4.00
66336;PMS1003;53139;45.576;5.304;2023-03-13T03:42:15;6.50;4.75;4.00
66336;PMS1003;53139;45.576;5.304;2023-03-13T03:45:16;3.00;2.00;1.00
66336;PMS1003;53139;45.576;5.304;2023-03-13T03:48:16;3.50;3.25;2.25
66336;PMS1003;53139;45.576;5.304;2023-03-13T03:51:16;2.00;2.00;2.00
66336;PMS1003;53139;45.576;5.304;2023-03-13T03:54:17;3.00;2.00;2.00
66336;PMS1003;53139;45.576;5.304;2023-03-13T03:57:17;3.75;3.75;2.00
66336;PMS1003;53139;45.576;5.304;2023-03-13T04:00:18;1.25;1.25;1.00
66336;PMS1003;53139;45.576;5.304;2023-03-13T04:03:18;2.00;2.00;1.75
66336;PMS1003;53139;45.576;5.304;2023-03-13T04:06:19;2.00;2.00;1.50
66336;PMS1003;53139;45.576;5.304;2023-03-13T04:09:19;2.50;2.00;2.00
66336;PMS1003;53139;45.576;5.304;2023-03-13T04:12:20;2.75;2.75;2.25
66336;PMS1003;53139;45.576;5.304;2023-03-13T04:15:20;1.00;1.00;1.00
66336;PMS1003;53139;45.576;5.304;2023-03-13T04:18:20;3.25;2.00;2.00
66336;PMS1003;53139;45.576;5.304;2023-03-13T04:21:21;3.00;3.00;2.00
66336;PMS1003;53139;45.576;5.304;2023-03-13T04:24:22;1.25;1.25;1.25
66336;PMS1003;53139;45.576;5.304;2023-03-13T04:27:22;1.75;1.00;0.75
66336;PMS1003;53139;45.576;5.304;2023-03-13T04:30:23;2.50;1.00;1.00
66336;PMS1003;53139;45.576;5.304;2023-03-13T04:33:23;1.75;1.75;1.50
66336;PMS1003;53139;45.576;5.304;2023-03-13T04:36:24;3.75;3.00;2.00
66336;PMS1003;53139;45.576;5.304;2023-03-13T04:39:24;4.50;3.00;1.00
66336;PMS1003;53139;45.576;5.304;2023-03-13T04:42:25;4.25;2.00;2.00
66336;PMS1003;53139;45.576;5.304;2023-03-13T04:45:25;24.00;21.50;15.50
66336;PMS1003;53139;45.576;5.304;2023-03-13T04:48:27;4.00;3.50;3.00
66336;PMS1003;53139;45.576;5.304;2023-03-13T04:51:27;5.00;4.00;3.00
66336;PMS1003;53139;45.576;5.304;2023-03-13T04:54:27;4.00;3.00;3.00
66336;PMS1003;53139;45.576;5.304;2023-03-13T04:57:28;7.00;3.75;3.00
66336;PMS1003;53139;45.576;5.304;2023-03-13T05:00:28;4.00;2.50;2.00
66336;PMS1003;53139;45.576;5.304;2023-03-13T05:03:29;3.25;3.00;2.25
66336;PMS1003;53139;45.576;5.304;2023-03-13T05:06:29;3.00;2.00;2.00
66336;PMS1003;53139;45.576;5.304;2023-03-13T05:09:30;2.00;2.00;1.25
66336;PMS1003;53139;45.576;5.304;2023-03-13T05:12:30;4.50;3.00;2.75
66336;PMS1003;53139;45.576;5.304;2023-03-13T05:15:31;4.00;2.00;2.00
66336;PMS1003;53139;45.576;5.304;2023-03-13T05:18:31;2.00;2.00;1.50
66336;PMS1003;53139;45.576;5.304;2023-03-13T05:21:31;2.00;2.00;2.00
66336;PMS1003;53139;45.576;5.304;2023-03-13T05:24:35;2.00;2.00;1.75
66336;PMS1003;53139;45.576;5.304;2023-03-13T05:27:35;4.00;2.00;2.00
66336;PMS1003;53139;45.576;5.304;2023-03-13T05:30:35;8.00;8.00;7.00
66336;PMS1003;53139;45.576;5.304;2023-03-13T05:33:36;4.00;4.00;4.00
66336;PMS1003;53139;45.576;5.304;2023-03-13T05:36:36;4.50;4.50;3.75
66336;PMS1003;53139;45.576;5.304;2023-03-13T05:39:37;7.00;5.00;4.00
66336;PMS1003;53139;45.576;5.304;2023-03-13T05:42:37;5.00;3.00;2.50
66336;PMS1003;53139;45.576;5.304;2023-03-13T05:45:38;4.25;4.00;3.00
66336;PMS1003;53139;45.576;5.304;2023-03-13T05:48:38;13.50;13.00;8.50
66336;PMS1003;53139;45.576;5.304;2023-03-13T05:51:39;7.00;6.50;4.00
66336;PMS1003;53139;45.576;5.304;2023-03-13T05:54:39;41.00;33.00;23.50
66336;PMS1003;53139;45.576;5.304;2023-03-13T05:57:42;5.00;5.00;4.00
66336;PMS1003;53139;45.576;5.304;2023-03-13T06:00:44;40.25;35.25;23.25
66336;PMS1003;53139;45.576;5.304;2023-03-13T06:03:44;52.50;41.25;28.50
66336;PMS1003;53139;45.576;5.304;2023-03-13T06:06:45;7.00;7.00;6.00
66336;PMS1003;53139;45.576;5.304;2023-03-13T06:09:45;6.25;6.25;5.50
66336;PMS1003;53139;45.576;5.304;2023-03-13T06:12:53;9.75;6.75;5.75
66336;PMS1003;53139;45.576;5.304;2023-03-13T06:15:55;6.00;6.00;4.00
66336;PMS1003;53139;45.576;5.304;2023-03-13T06:18:56;8.25;8.00;6.50
66336;PMS1003;53139;45.576;5.304;2023-03-13T06:21:57;27.00;21.50;13.50
66336;PMS1003;53139;45.576;5.304;2023-03-13T06:24:57;9.00;6.75;4.00
66336;PMS1003;53139;45.576;5.304;2023-03-13T06:27:58;6.00;3.25;2.50
66336;PMS1003;53139;45.576;5.304;2023-03-13T06:31:02;3.50;3.50;2.75
66336;PMS1003;53139;45.576;5.304;2023-03-13T06:34:03;20.75;16.75;13.00
66336;PMS1003;53139;45.576;5.304;2023-03-13T06:37:07;12.00;9.00;8.00
66336;PMS1003;53139;45.576;5.304;2023-03-13T06:40:08;7.75;6.00;4.00
66336;PMS1003;53139;45.576;5.304;2023-03-13T06:43:09;6.00;6.00;4.00
66336;PMS1003;53139;45.576;5.304;2023-03-13T06:46:17;2.75;2.75;2.25
66336;PMS1003;53139;45.576;5.304;2023-03-13T06:49:22;13.75;11.50;9.00
66336;PMS1003;53139;45.576;5.304;2023-03-13T06:52:22;16.00;15.00;12.50
66336;PMS1003;53139;45.576;5.304;2023-03-13T06:55:23;23.50;21.75;15.00
66336;PMS1003;53139;45.576;5.304;2023-03-13T06:58:23;14.75;12.75;9.25
66336;PMS1003;53139;45.576;5.304;2023-03-13T07:01:24;26.75;25.25;19.25
66336;PMS1003;53139;45.576;5.304;2023-03-13T07:04:24;67.33;53.00;35.00
66336;PMS1003;53139;45.576;5.304;2023-03-13T07:07:24;28.00;26.33;20.33
66336;PMS1003;53139;45.576;5.304;2023-03-13T07:10:25;12.33;12.00;7.33
66336;PMS1003;53139;45.576;5.304;2023-03-13T07:13:25;16.00;16.00;11.00
66336;PMS1003;53139;45.576;5.304;2023-03-13T07:16:26;19.75;18.25;15.00
66336;PMS1003;53139;45.576;5.304;2023-03-13T07:19:27;12.00;8.75;7.00
66336;PMS1003;53139;45.576;5.304;2023-03-13T07:22:27;8.25;7.25;5.50
66336;PMS1003;53139;45.576;5.304;2023-03-13T07:25:27;18.75;17.50;13.00
66336;PMS1003;53139;45.576;5.304;2023-03-13T07:28:28;40.67;34.33;23.67
66336;PMS1003;53139;45.576;5.304;2023-03-13T07:32:25;10.50;9.50;7.50
66336;PMS1003;53139;45.576;5.304;2023-03-13T07:35:34;55.25;44.75;29.25
66336;PMS1003;53139;45.576;5.304;2023-03-13T07:38:35;10.00;7.75;5.50
66336;PMS1003;53139;45.576;5.304;2023-03-13T07:41:44;6.75;5.00;3.75
66336;PMS1003;53139;45.576;5.304;2023-03-13T07:44:52;9.25;6.50;5.00
66336;PMS1003;53139;45.576;5.304;2023-03-13T07:47:56;27.75;25.25;19.75
66336;PMS1003;53139;45.576;5.304;2023-03-13T07:50:57;1.00;1.00;0.25
66336;PMS1003;53139;45.576;5.304;2023-03-13T07:54:04;0.75;0.50;0.00
66336;PMS1003;53139;45.576;5.304;2023-03-13T07:57:11;3.25;1.25;0.50
66336;PMS1003;53139;45.576;5.304;2023-03-13T08:00:13;1.00;1.00;1.00
66336;PMS1003;53139;45.576;5.304;2023-03-13T08:03:16;1.00;1.00;0.75
66336;PMS1003;53139;45.576;5.304;2023-03-13T08:06:24;2.50;0.75;0.00
66336;PMS1003;53139;45.576;5.304;2023-03-13T08:09:31;1.50;1.00;1.00
66336;PMS1003;53139;45.576;5.304;2023-03-13T08:12:37;1.00;1.00;0.75
66336;PMS1003;53139;45.576;5.304;2023-03-13T08:16:00;0.00;0.00;0.00
66336;PMS1003;53139;45.576;5.304;2023-03-13T08:19:17;1.50;0.50;0.50
66336;PMS1003;53139;45.576;5.304;2023-03-13T08:22:18;0.50;0.50;0.50
66336;PMS1003;53139;45.576;5.304;2023-03-13T08:25:22;2.00;1.00;1.00
66336;PMS1003;53139;45.576;5.304;2023-03-13T08:28:28;1.00;1.00;0.25
66336;PMS1003;53139;45.576;5.304;2023-03-13T08:31:42;0.25;0.25;0.00
66336;PMS1003;53139;45.576;5.304;2023-03-13T08:34:47;2.00;0.50;0.50
66336;PMS1003;53139;45.576;5.304;2023-03-13T08:37:51;1.00;1.00;1.00
66336;PMS1003;53139;45.576;5.304;2023-03-13T08:40:55;0.00;0.00;0.00
66336;PMS1003;53139;45.576;5.304;2023-03-13T08:43:56;0.75;0.75;0.75
66336;PMS1003;53139;45.576;5.304;2023-03-13T08:46:57;0.00;0.00;0.00
66336;PMS1003;53139;45.576;5.304;2023-03-13T08:49:59;1.50;0.00;0.00
66336;PMS1003;53139;45.576;5.304;2023-03-13T08:53:00;0.00;0.00;0.00
66336;PMS1003;53139;45.576;5.304;2023-03-13T08:56:02;2.00;1.00;0.75
66336;PMS1003;53139;45.576;5.304;2023-03-13T08:59:03;1.75;0.00;0.00
66336;PMS1003;53139;45.576;5.304;2023-03-13T09:02:04;0.25;0.25;0.25
66336;PMS1003;53139;45.576;5.304;2023-03-13T09:05:05;0.00;0.00;0.00
66336;PMS1003;53139;45.576;5.304;2023-03-13T09:08:06;1.00;1.00;0.75
66336;PMS1003;53139;45.576;5.304;2023-03-13T09:11:07;0.00;0.00;0.00
66336;PMS1003;53139;45.576;5.304;2023-03-13T09:14:12;0.00;0.00;0.00
66336;PMS1003;53139;45.576;5.304;2023-03-13T09:17:13;0.00;0.00;0.00
66336;PMS1003;53139;45.576;5.304;2023-03-13T09:20:13;0.00;0.00;0.00
66336;PMS1003;53139;45.576;5.304;2023-03-13T09:23:14;0.25;0.00;0.00
66336;PMS1003;53139;45.576;5.304;2023-03-13T09:26:16;1.25;0.00;0.00
66336;PMS1003;53139;45.576;5.304;2023-03-13T09:29:21;0.00;0.00;0.00
66336;PMS1003;53139;45.576;5.304;2023-03-13T09:32:22;0.00;0.00;0.00
66336;PMS1003;53139;45.576;5.304;2023-03-13T09:35:22;0.00;0.00;0.00
66336;PMS1003;53139;45.576;5.304;2023-03-13T09:38:24;0.00;0.00;0.00
66336;PMS1003;53139;45.576;5.304;2023-03-13T09:41:37;0.25;0.00;0.00
66336;PMS1003;53139;45.576;5.304;2023-03-13T09:45:00;0.00;0.00;0.00
66336;PMS1003;53139;45.576;5.304;2023-03-13T09:51:36;0.00;0.00;0.00
66336;PMS1003;53139;45.576;5.304;2023-03-13T09:54:41;0.00;0.00;0.00
66336;PMS1003;53139;45.576;5.304;2023-03-13T09:57:50;0.25;0.25;0.25
66336;PMS1003;53139;45.576;5.304;2023-03-13T10:01:03;0.00;0.00;0.00
66336;PMS1003;53139;45.576;5.304;2023-03-13T10:07:30;0.00;0.00;0.00
66336;PMS1003;53139;45.576;5.304;2023-03-13T10:10:41;0.00;0.00;0.00
66336;PMS1003;53139;45.576;5.304;2023-03-13T10:13:47;0.50;0.50;0.50
66336;PMS1003;53139;45.576;5.304;2023-03-13T10:17:00;0.00;0.00;0.00
66336;PMS1003;53139;45.576;5.304;2023-03-13T10:23:31;1.00;1.00;1.00
66336;PMS1003;53139;45.576;5.304;2023-03-13T10:26:55;0.00;0.00;0.00
66336;PMS1003;53139;45.576;5.304;2023-03-13T10:29:56;0.00;0.00;0.00
66336;PMS1003;53139;45.576;5.304;2023-03-13T10:32:57;0.00;0.00;0.00
66336;PMS1003;53139;45.576;5.304;2023-03-13T10:36:01;0.00;0.00;0.00
66336;PMS1003;53139;45.576;5.304;2023-03-13T10:39:29;0.00;0.00;0.00
66336;PMS1003;53139;45.576;5.304;2023-03-13T10:42:37;0.00;0.00;0.00
66336;PMS1003;53139;45.576;5.304;2023-03-13T10:45:48;1.00;0.00;0.00
66336;PMS1003;53139;45.576;5.304;2023-03-13T10:48:57;1.00;0.00;0.00
66336;PMS1003;53139;45.576;5.304;2023-03-13T10:52:11;1.00;0.00;0.00
66336;PMS1003;53139;45.576;5.304;2023-03-13T10:55:47;0.00;0.00;0.00
66336;PMS1003;53139;45.576;5.304;2023-03-13T10:58:57;0.00;0.00;0.00
66336;PMS1003;53139;45.576;5.304;2023-03-13T11:01:59;1.25;0.00;0.00
66336;PMS1003;53139;45.576;5.304;2023-03-13T11:08:46;0.00;0.00;0.00
66336;PMS1003;53139;45.576;5.304;2023-03-13T11:12:16;1.25;0.00;0.00
66336;PMS1003;53139;45.576;5.304;2023-03-13T11:15:33;0.25;0.00;0.00
66336;PMS1003;53139;45.576;5.304;2023-03-13T11:29:05;0.00;0.00;0.00
66336;PMS1003;53139;45.576;5.304;2023-03-13T11:32:44;0.00;0.00;0.00
66336;PMS1003;53139;45.576;5.304;2023-03-13T11:36:22;0.50;0.00;0.00
66336;PMS1003;53139;45.576;5.304;2023-03-13T11:43:22;0.75;0.00;0.00
66336;PMS1003;53139;45.576;5.304;2023-03-13T11:49:56;0.00;0.00;0.00
66336;PMS1003;53139;45.576;5.304;2023-03-13T11:56:41;1.00;0.75;0.00
66336;PMS1003;53139;45.576;5.304;2023-03-13T12:07:16;2.25;0.00;0.00
66336;PMS1003;53139;45.576;5.304;2023-03-13T12:11:14;0.00;0.00;0.00
66336;PMS1003;53139;45.576;5.304;2023-03-13T12:14:41;0.00;0.00;0.00
66336;PMS1003;53139;45.576;5.304;2023-03-13T12:18:19;0.00;0.00;0.00
66336;PMS1003;53139;45.576;5.304;2023-03-13T12:21:46;0.00;0.00;0.00
66336;PMS1003;53139;45.576;5.304;2023-03-13T12:25:02;0.25;0.00;0.00
66336;PMS1003;53139;45.576;5.304;2023-03-13T12:35:23;0.00;0.00;0.00
66336;PMS1003;53139;45.576;5.304;2023-03-13T12:41:43;0.00;0.00;0.00
66336;PMS1003;53139;45.576;5.304;2023-03-13T12:45:06;0.00;0.00;0.00
66336;PMS1003;53139;45.576;5.304;2023-03-13T12:48:30;0.00;0.00;0.00
66336;PMS1003;53139;45.576;5.304;2023-03-13T13:01:40;1.00;0.00;0.00
66336;PMS1003;53139;45.576;5.304;2023-03-13T13:04:44;0.00;0.00;0.00
66336;PMS1003;53139;45.576;5.304;2023-03-13T13:07:53;2.25;0.00;0.00
66336;PMS1003;53139;45.576;5.304;2023-03-13T13:11:21;0.25;0.00;0.00
66336;PMS1003;53139;45.576;5.304;2023-03-13T13:17:50;0.00;0.00;0.00
66336;PMS1003;53139;45.576;5.304;2023-03-13T13:21:17;1.25;0.25;0.00
66336;PMS1003;53139;45.576;5.304;2023-03-13T13:27:47;0.00;0.00;0.00
66336;PMS1003;53139;45.576;5.304;2023-03-13T13:30:48;1.00;0.00;0.00
66336;PMS1003;53139;45.576;5.304;2023-03-13T13:33:50;0.25;0.25;0.25
66336;PMS1003;53139;45.576;5.304;2023-03-13T13:36:51;0.00;0.00;0.00
66336;PMS1003;53139;45.576;5.304;2023-03-13T13:39:54;0.50;0.50;0.50
66336;PMS1003;53139;45.576;5.304;2023-03-13T13:43:20;1.00;1.00;0.50
66336;PMS1003;53139;45.576;5.304;2023-03-13T13:46:29;0.00;0.00;0.00
66336;PMS1003;53139;45.576;5.304;2023-03-13T13:49:33;1.00;0.00;0.00
66336;PMS1003;53139;45.576;5.304;2023-03-13T13:52:36;0.50;0.50;0.25
66336;PMS1003;53139;45.576;5.304;2023-03-13T13:58:37;1.00;1.00;1.00
66336;PMS1003;53139;45.576;5.304;2023-03-13T14:01:43;1.00;0.00;0.00
66336;PMS1003;53139;45.576;5.304;2023-03-13T14:04:54;0.00;0.00;0.00
66336;PMS1003;53139;45.576;5.304;2023-03-13T14:08:05;0.00;0.00;0.00
66336;PMS1003;53139;45.576;5.304;2023-03-13T14:14:14;1.75;1.00;1.00
66336;PMS1003;53139;45.576;5.304;2023-03-13T14:17:16;2.25;1.00;1.00
66336;PMS1003;53139;45.576;5.304;2023-03-13T14:26:28;1.00;1.00;0.25
66336;PMS1003;53139;45.576;5.304;2023-03-13T14:29:29;1.00;1.00;1.00
66336;PMS1003;53139;45.576;5.304;2023-03-13T14:32:29;2.00;1.00;1.00
66336;PMS1003;53139;45.576;5.304;2023-03-13T14:35:30;2.00;2.00;2.00
66336;PMS1003;53139;45.576;5.304;2023-03-13T14:38:30;1.00;1.00;1.00
66336;PMS1003;53139;45.576;5.304;2023-03-13T14:41:36;1.00;1.00;1.00
66336;PMS1003;53139;45.576;5.304;2023-03-13T14:44:44;2.00;2.00;1.75
66336;PMS1003;53139;45.576;5.304;2023-03-13T14:47:48;2.00;2.00;2.00
66336;PMS1003;53139;45.576;5.304;2023-03-13T14:50:51;1.75;1.00;1.00
66336;PMS1003;53139;45.576;5.304;2023-03-13T14:54:00;2.00;2.00;2.00
66336;PMS1003;53139;45.576;5.304;2023-03-13T14:57:11;1.00;1.00;0.75
66336;PMS1003;53139;45.576;5.304;2023-03-13T15:00:48;2.75;2.50;1.50
66336;PMS1003;53139;45.576;5.304;2023-03-13T15:03:43;3.00;2.75;2.00
66336;PMS1003;53139;45.576;5.304;2023-03-13T15:06:45;3.00;1.75;1.75
66336;PMS1003;53139;45.576;5.304;2023-03-13T15:09:45;3.00;3.00;2.25
66336;PMS1003;53139;45.576;5.304;2023-03-13T15:12:48;4.00;4.00;2.00
66336;PMS1003;53139;45.576;5.304;2023-03-13T15:15:49;3.00;3.00;2.75
66336;PMS1003;53139;45.576;5.304;2023-03-13T15:18:51;2.00;2.00;2.00
66336;PMS1003;53139;45.576;5.304;2023-03-13T15:21:52;3.75;2.00;1.25
66336;PMS1003;53139;45.576;5.304;2023-03-13T15:24:53;3.75;2.00;2.00
66336;PMS1003;53139;45.576;5.304;2023-03-13T15:27:55;2.75;2.00;1.00
66336;PMS1003;53139;45.576;5.304;2023-03-13T15:30:55;3.00;1.00;1.00
66336;PMS1003;53139;45.576;5.304;2023-03-13T15:33:57;4.00;1.25;1.25
66336;PMS1003;53139;45.576;5.304;2023-03-13T15:36:59;0.00;0.00;0.00
66336;PMS1003;53139;45.576;5.304;2023-03-13T15:39:59;1.00;1.00;1.00
66336;PMS1003;53139;45.576;5.304;2023-03-13T15:43:01;1.00;1.00;0.75
66336;PMS1003;53139;45.576;5.304;2023-03-13T15:46:02;2.25;0.00;0.00
66336;PMS1003;53139;45.576;5.304;2023-03-13T15:49:02;0.25;0.25;0.00
66336;PMS1003;53139;45.576;5.304;2023-03-13T15:52:08;1.25;1.00;0.75
66336;PMS1003;53139;45.576;5.304;2023-03-13T15:55:16;2.50;2.50;2.00
66336;PMS1003;53139;45.576;5.304;2023-03-13T15:58:17;2.75;2.00;2.00
66336;PMS1003;53139;45.576;5.304;2023-03-13T16:01:17;1.25;1.25;1.00
66336;PMS1003;53139;45.576;5.304;2023-03-13T16:04:18;2.00;2.00;2.00
66336;PMS1003;53139;45.576;5.304;2023-03-13T16:07:19;1.50;1.50;1.00
66336;PMS1003;53139;45.576;5.304;2023-03-13T16:10:25;2.75;1.50;1.00
66336;PMS1003;53139;45.576;5.304;2023-03-13T16:13:27;4.25;4.00;3.00
66336;PMS1003;53139;45.576;5.304;2023-03-13T16:16:31;2.75;2.50;2.00
66336;PMS1003;53139;45.576;5.304;2023-03-13T16:19:34;2.00;2.00;2.00
66336;PMS1003;53139;45.576;5.304;2023-03-13T16:22:34;5.00;3.00;2.75
66336;PMS1003;53139;45.576;5.304;2023-03-13T16:25:35;8.50;3.00;2.25
66336;PMS1003;53139;45.576;5.304;2023-03-13T16:28:36;2.00;2.00;2.00
66336;PMS1003;53139;45.576;5.304;2023-03-13T16:31:36;2.25;1.00;0.75
66336;PMS1003;53139;45.576;5.304;2023-03-13T16:34:37;4.00;4.00;2.75
66336;PMS1003;53139;45.576;5.304;2023-03-13T16:37:37;5.75;3.50;2.50
66336;PMS1003;53139;45.576;5.304;2023-03-13T16:40:38;3.75;3.75;3.00
66336;PMS1003;53139;45.576;5.304;2023-03-13T16:43:38;2.75;2.75;2.00
66336;PMS1003;53139;45.576;5.304;2023-03-13T16:46:39;1.00;0.50;0.00
66336;PMS1003;53139;45.576;5.304;2023-03-13T16:49:41;5.00;3.50;3.00
66336;PMS1003;53139;45.576;5.304;2023-03-13T16:52:41;1.00;1.00;0.50
66336;PMS1003;53139;45.576;5.304;2023-03-13T16:55:45;1.50;1.50;1.50
66336;PMS1003;53139;45.576;5.304;2023-03-13T16:58:45;5.00;5.00;4.00
66336;PMS1003;53139;45.576;5.304;2023-03-13T17:01:46;4.50;3.25;3.00
66336;PMS1003;53139;45.576;5.304;2023-03-13T17:04:47;5.25;5.25;4.00
66336;PMS1003;53139;45.576;5.304;2023-03-13T17:07:48;6.00;4.75;3.75
66336;PMS1003;53139;45.576;5.304;2023-03-13T17:10:50;4.25;4.25;3.75
66336;PMS1003;53139;45.576;5.304;2023-03-13T17:13:51;8.00;5.25;4.00
66336;PMS1003;53139;45.576;5.304;2023-03-13T17:16:52;7.00;5.75;4.25
66336;PMS1003;53139;45.576;5.304;2023-03-13T17:19:52;6.50;4.50;3.50
66336;PMS1003;53139;45.576;5.304;2023-03-13T17:22:53;6.75;6.00;4.00
66336;PMS1003;53139;45.576;5.304;2023-03-13T17:25:55;1.75;1.75;1.00
66336;PMS1003;53139;45.576;5.304;2023-03-13T17:28:56;5.75;4.50;3.50
66336;PMS1003;53139;45.576;5.304;2023-03-13T17:31:57;1.50;1.50;0.00
66336;PMS1003;53139;45.576;5.304;2023-03-13T17:34:58;8.75;5.25;4.75
66336;PMS1003;53139;45.576;5.304;2023-03-13T17:37:58;5.25;5.25;4.50
66336;PMS1003;53139;45.576;5.304;2023-03-13T17:40:59;5.25;4.25;3.75
66336;PMS1003;53139;45.576;5.304;2023-03-13T17:43:59;4.00;4.00;3.75
66336;PMS1003;53139;45.576;5.304;2023-03-13T17:46:59;3.50;3.50;3.00
66336;PMS1003;53139;45.576;5.304;2023-03-13T17:50:00;6.00;4.00;3.25
66336;PMS1003;53139;45.576;5.304;2023-03-13T17:53:00;5.00;5.00;4.00
66336;PMS1003;53139;45.576;5.304;2023-03-13T17:56:01;6.00;6.00;5.00
66336;PMS1003;53139;45.576;5.304;2023-03-13T17:59:01;6.75;6.50;5.00
66336;PMS1003;53139;45.576;5.304;2023-03-13T18:02:03;6.25;5.25;4.00
66336;PMS1003;53139;45.576;5.304;2023-03-13T18:05:03;8.00;6.00;5.00
66336;PMS1003;53139;45.576;5.304;2023-03-13T18:08:04;6.75;5.50;5.00
66336;PMS1003;53139;45.576;5.304;2023-03-13T18:11:04;5.50;4.00;3.25
66336;PMS1003;53139;45.576;5.304;2023-03-13T18:14:05;5.50;4.25;3.00
66336;PMS1003;53139;45.576;5.304;2023-03-13T18:17:16;5.75;4.25;4.00
66336;PMS1003;53139;45.576;5.304;2023-03-13T18:20:20;6.00;6.00;4.00
66336;PMS1003;53139;45.576;5.304;2023-03-13T18:23:24;5.75;5.25;4.00
66336;PMS1003;53139;45.576;5.304;2023-03-13T18:26:26;4.75;3.75;2.50
66336;PMS1003;53139;45.576;5.304;2023-03-13T18:29:29;6.00;5.00;4.00
66336;PMS1003;53139;45.576;5.304;2023-03-13T18:32:29;5.25;4.75;3.50
66336;PMS1003;53139;45.576;5.304;2023-03-13T18:35:30;5.25;5.25;4.25
66336;PMS1003;53139;45.576;5.304;2023-03-13T18:38:30;8.00;5.00;4.50
66336;PMS1003;53139;45.576;5.304;2023-03-13T18:41:31;4.00;2.00;1.25
66336;PMS1003;53139;45.576;5.304;2023-03-13T18:44:32;4.25;4.25;3.00
66336;PMS1003;53139;45.576;5.304;2023-03-13T18:47:32;6.00;6.00;4.75
66336;PMS1003;53139;45.576;5.304;2023-03-13T18:50:33;4.00;3.00;2.25
66336;PMS1003;53139;45.576;5.304;2023-03-13T18:53:33;5.50;3.25;3.00
66336;PMS1003;53139;45.576;5.304;2023-03-13T18:56:34;3.50;3.50;3.00
66336;PMS1003;53139;45.576;5.304;2023-03-13T18:59:34;4.00;3.25;3.00
66336;PMS1003;53139;45.576;5.304;2023-03-13T19:02:34;3.25;3.00;3.00
66336;PMS1003;53139;45.576;5.304;2023-03-13T19:05:35;5.50;3.25;2.50
66336;PMS1003;53139;45.576;5.304;2023-03-13T19:08:35;5.00;4.00;3.00
66336;PMS1003;53139;45.576;5.304;2023-03-13T19:11:35;1.50;1.50;1.50
66336;PMS1003;53139;45.576;5.304;2023-03-13T19:14:36;3.50;3.25;2.50
66336;PMS1003;53139;45.576;5.304;2023-03-13T19:17:36;5.50;3.00;2.50
66336;PMS1003;53139;45.576;5.304;2023-03-13T19:20:37;6.00;3.25;2.50